ALK308 VCBI-WSSS
Flight info
| Callsign | ALK308 |
|---|---|
| Flight time | 3h 37m |
| Altitude | 37000 |
| Route | DUDAL DCT VEVET P570 MABIX P756 OKABU M300 SALAX Y340 BATAR A464 ARAMA LELIB3B |
| Aircraft | A320/M-SDE3FGHIRWY/LB1 |
Departure
| Time | 2026-05-07 07:41 |
|---|---|
| Airport | Bandaranaike International Colombo Airport (VCBI) |
Arrival
| Time | 2026-05-07 11:18 |
|---|---|
| Airport | Singapore Changi Airport (WSSS) |
| Time | Latitude | Longitude | Altitude | Speed | Heading |
|---|---|---|---|---|---|
| 2026-05-07 07:06 | 7.17746 | 79.88437 | 34 ft | 0 kts | 217° |
| 2026-05-07 07:31 | 7.17747 | 79.88437 | 56 ft | 2 kts | 217° |
| 2026-05-07 07:32 | 7.17757 | 79.88444 | 55 ft | 2 kts | 220° |
| 2026-05-07 07:32 | 7.17766 | 79.88458 | 24 ft | 3 kts | 247° |
| 2026-05-07 07:32 | 7.17773 | 79.88475 | 32 ft | 2 kts | 247° |
| 2026-05-07 07:32 | 7.17779 | 79.88490 | 35 ft | 2 kts | 242° |
| 2026-05-07 07:33 | 7.17783 | 79.88507 | 36 ft | 2 kts | 286° |
| 2026-05-07 07:33 | 7.17780 | 79.88517 | 35 ft | 0 kts | 305° |
| 2026-05-07 07:35 | 7.17784 | 79.88512 | 36 ft | 2 kts | 304° |
| 2026-05-07 07:35 | 7.17799 | 79.88497 | 35 ft | 4 kts | 322° |
| 2026-05-07 07:36 | 7.17828 | 79.88477 | 36 ft | 6 kts | 324° |
| 2026-05-07 07:36 | 7.17864 | 79.88446 | 36 ft | 8 kts | 329° |
| 2026-05-07 07:36 | 7.17919 | 79.88453 | 35 ft | 9 kts | 32° |
| 2026-05-07 07:36 | 7.17975 | 79.88496 | 36 ft | 11 kts | 37° |
| 2026-05-07 07:37 | 7.18042 | 79.88546 | 36 ft | 13 kts | 37° |
| 2026-05-07 07:37 | 7.18120 | 79.88605 | 36 ft | 15 kts | 37° |
| 2026-05-07 07:37 | 7.18207 | 79.88672 | 36 ft | 17 kts | 37° |
| 2026-05-07 07:37 | 7.18304 | 79.88746 | 36 ft | 18 kts | 37° |
| 2026-05-07 07:38 | 7.18410 | 79.88827 | 36 ft | 20 kts | 37° |
| 2026-05-07 07:38 | 7.18526 | 79.88915 | 37 ft | 22 kts | 37° |
| 2026-05-07 07:38 | 7.18650 | 79.89010 | 35 ft | 24 kts | 37° |
| 2026-05-07 07:38 | 7.18787 | 79.89114 | 37 ft | 26 kts | 37° |
| 2026-05-07 07:39 | 7.18935 | 79.89226 | 36 ft | 28 kts | 37° |
| 2026-05-07 07:39 | 7.19090 | 79.89344 | 34 ft | 24 kts | 37° |
| 2026-05-07 07:39 | 7.19177 | 79.89408 | 36 ft | 13 kts | 25° |
| 2026-05-07 07:39 | 7.19255 | 79.89367 | 36 ft | 15 kts | 308° |
| 2026-05-07 07:40 | 7.19284 | 79.89271 | 36 ft | 16 kts | 239° |
| 2026-05-07 07:40 | 7.19193 | 79.89195 | 37 ft | 20 kts | 217° |
| 2026-05-07 07:40 | 7.18929 | 79.88993 | 39 ft | 80 kts | 217° |
| 2026-05-07 07:40 | 7.18330 | 79.88539 | 37 ft | 133 kts | 217° |
| 2026-05-07 07:41 | 7.17475 | 79.87895 | 108 ft | 167 kts | 216° |
| 2026-05-07 07:41 | 7.16541 | 79.87222 | 674 ft | 164 kts | 213° |
| 2026-05-07 07:41 | 7.15446 | 79.86903 | 1187 ft | 171 kts | 172° |
| 2026-05-07 07:41 | 7.14396 | 79.87444 | 1779 ft | 173 kts | 135° |
| 2026-05-07 07:42 | 7.13545 | 79.88332 | 2200 ft | 184 kts | 145° |
| 2026-05-07 07:42 | 7.12376 | 79.89013 | 2398 ft | 206 kts | 155° |
| 2026-05-07 07:42 | 7.11002 | 79.89655 | 2657 ft | 230 kts | 156° |
| 2026-05-07 07:42 | 7.09472 | 79.90364 | 3017 ft | 252 kts | 154° |
| 2026-05-07 07:43 | 7.08047 | 79.91435 | 3639 ft | 262 kts | 129° |
| 2026-05-07 07:43 | 7.07224 | 79.93100 | 4261 ft | 273 kts | 102° |
| 2026-05-07 07:43 | 7.06815 | 79.94980 | 5056 ft | 276 kts | 104° |
| 2026-05-07 07:43 | 7.06291 | 79.96851 | 5844 ft | 280 kts | 106° |
| 2026-05-07 07:44 | 7.05711 | 79.98730 | 6601 ft | 283 kts | 107° |
| 2026-05-07 07:44 | 7.05117 | 80.00631 | 7326 ft | 286 kts | 107° |
| 2026-05-07 07:44 | 7.04522 | 80.02558 | 8053 ft | 290 kts | 107° |
| 2026-05-07 07:44 | 7.03931 | 80.04506 | 8775 ft | 293 kts | 106° |
| 2026-05-07 07:45 | 7.03342 | 80.06479 | 9482 ft | 296 kts | 105° |
| 2026-05-07 07:45 | 7.02756 | 80.08477 | 10112 ft | 301 kts | 105° |
| 2026-05-07 07:45 | 7.02159 | 80.10539 | 10321 ft | 322 kts | 105° |
| 2026-05-07 07:45 | 7.01516 | 80.12773 | 10523 ft | 340 kts | 105° |
| 2026-05-07 07:46 | 7.00849 | 80.15082 | 11016 ft | 346 kts | 105° |
| 2026-05-07 07:46 | 7.00174 | 80.17417 | 11600 ft | 349 kts | 106° |
| 2026-05-07 07:46 | 6.99492 | 80.19772 | 12188 ft | 352 kts | 106° |
| 2026-05-07 07:46 | 6.98825 | 80.22154 | 12782 ft | 355 kts | 104° |
| 2026-05-07 07:47 | 6.98208 | 80.24572 | 13366 ft | 358 kts | 104° |
| 2026-05-07 07:47 | 6.97617 | 80.27013 | 13895 ft | 361 kts | 103° |
| 2026-05-07 07:47 | 6.97031 | 80.29482 | 14404 ft | 364 kts | 103° |
| 2026-05-07 07:47 | 6.96436 | 80.31970 | 14915 ft | 367 kts | 103° |
| 2026-05-07 07:48 | 6.95829 | 80.34474 | 15415 ft | 369 kts | 104° |
| 2026-05-07 07:48 | 6.95208 | 80.36991 | 15910 ft | 372 kts | 104° |
| 2026-05-07 07:48 | 6.94578 | 80.39532 | 16402 ft | 375 kts | 104° |
| 2026-05-07 07:48 | 6.93943 | 80.42088 | 16883 ft | 378 kts | 104° |
| 2026-05-07 07:49 | 6.93301 | 80.44665 | 17372 ft | 381 kts | 104° |
| 2026-05-07 07:49 | 6.92654 | 80.47266 | 17884 ft | 384 kts | 104° |
| 2026-05-07 07:49 | 6.92014 | 80.49852 | 18333 ft | 387 kts | 104° |
| 2026-05-07 07:49 | 6.91364 | 80.52487 | 18785 ft | 389 kts | 104° |
| 2026-05-07 07:50 | 6.90711 | 80.55134 | 19269 ft | 390 kts | 104° |
| 2026-05-07 07:50 | 6.90055 | 80.57785 | 19749 ft | 391 kts | 104° |
| 2026-05-07 07:50 | 6.89397 | 80.60441 | 20255 ft | 391 kts | 104° |
| 2026-05-07 07:50 | 6.88736 | 80.63106 | 20768 ft | 392 kts | 104° |
| 2026-05-07 07:51 | 6.88073 | 80.65779 | 21184 ft | 395 kts | 104° |
| 2026-05-07 07:51 | 6.87404 | 80.68465 | 21661 ft | 397 kts | 104° |
| 2026-05-07 07:51 | 6.86729 | 80.71168 | 22138 ft | 399 kts | 104° |
| 2026-05-07 07:51 | 6.86052 | 80.73886 | 22561 ft | 401 kts | 104° |
| 2026-05-07 07:52 | 6.85373 | 80.76618 | 22977 ft | 404 kts | 104° |
| 2026-05-07 07:52 | 6.84689 | 80.79369 | 23399 ft | 406 kts | 104° |
| 2026-05-07 07:52 | 6.84011 | 80.82098 | 23726 ft | 408 kts | 104° |
| 2026-05-07 07:52 | 6.83322 | 80.84874 | 24059 ft | 410 kts | 104° |
| 2026-05-07 07:53 | 6.82627 | 80.87669 | 24389 ft | 412 kts | 104° |
| 2026-05-07 07:53 | 6.81931 | 80.90474 | 24715 ft | 414 kts | 104° |
| 2026-05-07 07:53 | 6.81229 | 80.93298 | 25060 ft | 416 kts | 104° |
| 2026-05-07 07:53 | 6.80528 | 80.96130 | 25375 ft | 418 kts | 104° |
| 2026-05-07 07:54 | 6.79824 | 80.98974 | 25676 ft | 420 kts | 104° |
| 2026-05-07 07:54 | 6.79115 | 81.01830 | 25967 ft | 422 kts | 104° |
| 2026-05-07 07:54 | 6.78401 | 81.04699 | 26269 ft | 424 kts | 104° |
| 2026-05-07 07:54 | 6.77680 | 81.07585 | 26539 ft | 426 kts | 104° |
| 2026-05-07 07:55 | 6.76954 | 81.10484 | 26828 ft | 428 kts | 104° |
| 2026-05-07 07:55 | 6.76226 | 81.13397 | 27113 ft | 430 kts | 103° |
| 2026-05-07 07:55 | 6.75695 | 81.16356 | 27370 ft | 431 kts | 95° |
| 2026-05-07 07:55 | 6.75600 | 81.19381 | 27635 ft | 433 kts | 90° |
| 2026-05-07 07:56 | 6.75571 | 81.22417 | 27889 ft | 435 kts | 90° |
| 2026-05-07 07:56 | 6.75538 | 81.25466 | 28162 ft | 437 kts | 90° |
| 2026-05-07 07:56 | 6.75499 | 81.28527 | 28445 ft | 439 kts | 91° |
| 2026-05-07 07:56 | 6.75456 | 81.31566 | 28707 ft | 441 kts | 91° |
| 2026-05-07 07:57 | 6.75411 | 81.34655 | 28975 ft | 443 kts | 91° |
| 2026-05-07 07:57 | 6.75366 | 81.37764 | 29237 ft | 445 kts | 91° |
| 2026-05-07 07:57 | 6.75324 | 81.40886 | 29505 ft | 447 kts | 90° |
| 2026-05-07 07:57 | 6.75284 | 81.44016 | 29773 ft | 449 kts | 90° |
| 2026-05-07 07:58 | 6.75241 | 81.47160 | 30001 ft | 451 kts | 90° |
| 2026-05-07 07:58 | 6.75104 | 81.50312 | 30217 ft | 452 kts | 96° |
| 2026-05-07 07:58 | 6.74516 | 81.53429 | 30431 ft | 454 kts | 103° |
| 2026-05-07 07:58 | 6.73743 | 81.56510 | 30645 ft | 456 kts | 103° |
| 2026-05-07 07:59 | 6.72965 | 81.59612 | 30859 ft | 458 kts | 103° |
| 2026-05-07 07:59 | 6.72186 | 81.62725 | 31074 ft | 459 kts | 103° |
| 2026-05-07 07:59 | 6.71403 | 81.65843 | 31283 ft | 461 kts | 104° |
| 2026-05-07 07:59 | 6.70617 | 81.68972 | 31502 ft | 462 kts | 104° |
| 2026-05-07 08:00 | 6.69841 | 81.72065 | 31789 ft | 461 kts | 104° |
| 2026-05-07 08:00 | 6.69059 | 81.75192 | 32089 ft | 461 kts | 104° |
| 2026-05-07 08:00 | 6.68277 | 81.78320 | 32384 ft | 460 kts | 104° |
| 2026-05-07 08:00 | 6.67497 | 81.81438 | 32703 ft | 460 kts | 104° |
| 2026-05-07 08:01 | 6.66716 | 81.84560 | 33012 ft | 459 kts | 104° |
| 2026-05-07 08:01 | 6.65937 | 81.87672 | 33326 ft | 459 kts | 104° |
| 2026-05-07 08:01 | 6.65154 | 81.90777 | 33653 ft | 458 kts | 104° |
| 2026-05-07 08:01 | 6.64371 | 81.93879 | 33952 ft | 457 kts | 104° |
| 2026-05-07 08:02 | 6.63587 | 81.96980 | 34246 ft | 456 kts | 104° |
| 2026-05-07 08:02 | 6.62809 | 82.00068 | 34546 ft | 455 kts | 104° |
| 2026-05-07 08:02 | 6.62034 | 82.03148 | 34854 ft | 453 kts | 104° |
| 2026-05-07 08:02 | 6.61263 | 82.06213 | 35155 ft | 451 kts | 104° |
| 2026-05-07 08:03 | 6.60494 | 82.09273 | 35462 ft | 450 kts | 104° |
| 2026-05-07 08:03 | 6.59731 | 82.12316 | 35764 ft | 448 kts | 104° |
| 2026-05-07 08:03 | 6.58969 | 82.15349 | 36060 ft | 446 kts | 104° |
| 2026-05-07 08:03 | 6.58209 | 82.18369 | 36351 ft | 445 kts | 104° |
| 2026-05-07 08:04 | 6.57452 | 82.21373 | 36639 ft | 443 kts | 104° |
| 2026-05-07 08:04 | 6.56691 | 82.24382 | 36780 ft | 442 kts | 104° |
| 2026-05-07 08:04 | 6.55933 | 82.27371 | 36809 ft | 441 kts | 104° |
| 2026-05-07 08:05 | 6.54425 | 82.33331 | 36803 ft | 439 kts | 104° |
| 2026-05-07 08:05 | 6.52919 | 82.39284 | 36812 ft | 439 kts | 104° |
| 2026-05-07 08:06 | 6.51410 | 82.45236 | 36809 ft | 443 kts | 104° |
| 2026-05-07 08:06 | 6.49890 | 82.51241 | 36807 ft | 444 kts | 104° |
| 2026-05-07 08:07 | 6.48371 | 82.57257 | 36816 ft | 444 kts | 104° |
| 2026-05-07 08:07 | 6.46844 | 82.63284 | 36818 ft | 445 kts | 104° |
| 2026-05-07 08:08 | 6.45316 | 82.69310 | 36823 ft | 445 kts | 104° |
| 2026-05-07 08:08 | 6.43786 | 82.75336 | 36823 ft | 445 kts | 104° |
| 2026-05-07 08:09 | 6.42515 | 82.80347 | 36826 ft | 445 kts | 104° |
| 2026-05-07 08:09 | 6.40723 | 82.87383 | 36842 ft | 444 kts | 104° |
| 2026-05-07 08:10 | 6.39454 | 82.92372 | 36830 ft | 442 kts | 104° |
| 2026-05-07 08:10 | 6.37931 | 82.98358 | 36833 ft | 441 kts | 104° |
| 2026-05-07 08:11 | 6.36420 | 83.04327 | 36845 ft | 440 kts | 104° |
| 2026-05-07 08:11 | 6.34906 | 83.10285 | 36833 ft | 440 kts | 104° |
| 2026-05-07 08:12 | 6.33393 | 83.16201 | 36829 ft | 439 kts | 104° |
| 2026-05-07 08:12 | 6.31879 | 83.22158 | 36817 ft | 440 kts | 104° |
| 2026-05-07 08:13 | 6.30370 | 83.28124 | 36815 ft | 441 kts | 104° |
| 2026-05-07 08:13 | 6.28847 | 83.34102 | 36818 ft | 442 kts | 104° |
| 2026-05-07 08:14 | 6.27317 | 83.40084 | 36815 ft | 442 kts | 104° |
| 2026-05-07 08:14 | 6.25787 | 83.46071 | 36819 ft | 442 kts | 104° |
| 2026-05-07 08:15 | 6.24263 | 83.52062 | 36823 ft | 442 kts | 104° |
| 2026-05-07 08:15 | 6.22736 | 83.58052 | 36830 ft | 442 kts | 105° |
| 2026-05-07 08:16 | 6.21207 | 83.64033 | 36833 ft | 441 kts | 105° |
| 2026-05-07 08:16 | 6.19679 | 83.70010 | 36830 ft | 441 kts | 105° |
| 2026-05-07 08:17 | 6.18146 | 83.75975 | 36827 ft | 441 kts | 105° |
| 2026-05-07 08:17 | 6.16623 | 83.81906 | 36824 ft | 441 kts | 105° |
| 2026-05-07 08:18 | 6.15098 | 83.87874 | 36826 ft | 441 kts | 105° |
| 2026-05-07 08:18 | 6.13577 | 83.93842 | 36830 ft | 440 kts | 104° |
| 2026-05-07 08:19 | 6.12055 | 83.99793 | 36830 ft | 439 kts | 104° |
| 2026-05-07 08:19 | 6.10525 | 84.05731 | 36838 ft | 438 kts | 104° |
| 2026-05-07 08:20 | 6.09001 | 84.11650 | 36833 ft | 437 kts | 104° |
| 2026-05-07 08:20 | 6.07491 | 84.17565 | 36835 ft | 437 kts | 104° |
| 2026-05-07 08:21 | 6.05964 | 84.23471 | 36831 ft | 437 kts | 104° |
| 2026-05-07 08:21 | 6.04458 | 84.29348 | 36829 ft | 437 kts | 104° |
| 2026-05-07 08:22 | 6.02948 | 84.35267 | 36825 ft | 438 kts | 104° |
| 2026-05-07 08:22 | 6.01415 | 84.41198 | 36822 ft | 438 kts | 104° |
| 2026-05-07 08:23 | 5.99881 | 84.47129 | 36824 ft | 439 kts | 104° |
| 2026-05-07 08:23 | 5.98360 | 84.53069 | 36825 ft | 439 kts | 104° |
| 2026-05-07 08:24 | 5.96834 | 84.59006 | 36829 ft | 439 kts | 104° |
| 2026-05-07 08:24 | 5.95304 | 84.64955 | 36832 ft | 439 kts | 104° |
| 2026-05-07 08:25 | 5.93781 | 84.70852 | 36833 ft | 439 kts | 104° |
| 2026-05-07 08:25 | 5.92237 | 84.76800 | 36837 ft | 439 kts | 104° |
| 2026-05-07 08:26 | 5.89934 | 84.85708 | 36835 ft | 439 kts | 104° |
| 2026-05-07 08:26 | 5.88415 | 84.91604 | 36832 ft | 439 kts | 104° |
| 2026-05-07 08:27 | 5.86885 | 84.97534 | 36829 ft | 439 kts | 104° |
| 2026-05-07 08:27 | 5.85350 | 85.03465 | 36828 ft | 439 kts | 104° |
| 2026-05-07 08:28 | 5.83818 | 85.09399 | 36825 ft | 439 kts | 104° |
| 2026-05-07 08:28 | 5.82285 | 85.15345 | 36821 ft | 440 kts | 104° |
| 2026-05-07 08:29 | 5.80747 | 85.21290 | 36824 ft | 440 kts | 104° |
| 2026-05-07 08:29 | 5.79198 | 85.27241 | 36824 ft | 440 kts | 104° |
| 2026-05-07 08:30 | 5.77658 | 85.33189 | 36822 ft | 440 kts | 104° |
| 2026-05-07 08:30 | 5.76112 | 85.39137 | 36822 ft | 440 kts | 104° |
| 2026-05-07 08:31 | 5.74574 | 85.45051 | 36823 ft | 440 kts | 105° |
| 2026-05-07 08:31 | 5.73039 | 85.50994 | 36829 ft | 439 kts | 105° |
| 2026-05-07 08:32 | 5.71514 | 85.56922 | 36828 ft | 438 kts | 105° |
| 2026-05-07 08:32 | 5.69981 | 85.62835 | 36831 ft | 437 kts | 105° |
| 2026-05-07 08:33 | 5.68435 | 85.68740 | 36825 ft | 437 kts | 104° |
| 2026-05-07 08:33 | 5.66897 | 85.74648 | 36819 ft | 438 kts | 104° |
| 2026-05-07 08:34 | 5.65356 | 85.80571 | 36818 ft | 438 kts | 104° |
| 2026-05-07 08:34 | 5.63807 | 85.86493 | 36818 ft | 438 kts | 104° |
| 2026-05-07 08:35 | 5.62270 | 85.92412 | 36812 ft | 438 kts | 104° |
| 2026-05-07 08:35 | 5.60741 | 85.98295 | 36818 ft | 438 kts | 104° |
| 2026-05-07 08:36 | 5.59197 | 86.04215 | 36816 ft | 438 kts | 104° |
| 2026-05-07 08:36 | 5.57656 | 86.10130 | 36815 ft | 438 kts | 104° |
| 2026-05-07 08:37 | 5.56115 | 86.16051 | 36816 ft | 438 kts | 104° |
| 2026-05-07 08:37 | 5.54571 | 86.21968 | 36814 ft | 438 kts | 104° |
| 2026-05-07 08:38 | 5.53031 | 86.27886 | 36814 ft | 438 kts | 104° |
| 2026-05-07 08:38 | 5.51485 | 86.33794 | 36811 ft | 438 kts | 105° |
| 2026-05-07 08:39 | 5.49938 | 86.39707 | 36813 ft | 438 kts | 104° |
| 2026-05-07 08:39 | 5.48395 | 86.45622 | 36813 ft | 438 kts | 104° |
| 2026-05-07 08:40 | 5.46845 | 86.51537 | 36812 ft | 438 kts | 105° |
| 2026-05-07 08:40 | 5.45301 | 86.57450 | 36814 ft | 438 kts | 105° |
| 2026-05-07 08:41 | 5.43762 | 86.63363 | 36817 ft | 438 kts | 105° |
| 2026-05-07 08:41 | 5.42216 | 86.69272 | 36819 ft | 437 kts | 105° |
| 2026-05-07 08:42 | 5.40680 | 86.75129 | 36820 ft | 437 kts | 105° |
| 2026-05-07 08:42 | 5.39132 | 86.81025 | 36820 ft | 437 kts | 105° |
| 2026-05-07 08:43 | 5.37584 | 86.86919 | 36820 ft | 437 kts | 105° |
| 2026-05-07 08:43 | 5.36040 | 86.92820 | 36819 ft | 436 kts | 105° |
| 2026-05-07 08:44 | 5.34497 | 86.98704 | 36813 ft | 436 kts | 105° |
| 2026-05-07 08:44 | 5.32946 | 87.04587 | 36815 ft | 436 kts | 105° |
| 2026-05-07 08:45 | 5.31399 | 87.10471 | 36819 ft | 436 kts | 105° |
| 2026-05-07 08:45 | 5.29853 | 87.16344 | 36816 ft | 435 kts | 105° |
| 2026-05-07 08:46 | 5.28315 | 87.22219 | 36815 ft | 436 kts | 105° |
| 2026-05-07 08:46 | 5.26776 | 87.28107 | 36814 ft | 436 kts | 105° |
| 2026-05-07 08:47 | 5.25240 | 87.33954 | 36814 ft | 436 kts | 105° |
| 2026-05-07 08:47 | 5.23697 | 87.39827 | 36816 ft | 435 kts | 105° |
| 2026-05-07 08:48 | 5.22148 | 87.45699 | 36815 ft | 435 kts | 105° |
| 2026-05-07 08:48 | 5.20607 | 87.51564 | 36813 ft | 435 kts | 105° |
| 2026-05-07 08:49 | 5.19070 | 87.57431 | 36813 ft | 435 kts | 105° |
| 2026-05-07 08:49 | 5.17523 | 87.63301 | 36811 ft | 435 kts | 105° |
| 2026-05-07 08:50 | 5.15972 | 87.69166 | 36809 ft | 435 kts | 105° |
| 2026-05-07 08:50 | 5.14423 | 87.75033 | 36814 ft | 435 kts | 105° |
| 2026-05-07 08:51 | 5.12873 | 87.80890 | 36816 ft | 435 kts | 105° |
| 2026-05-07 08:51 | 5.11322 | 87.86754 | 36817 ft | 434 kts | 105° |
| 2026-05-07 08:52 | 5.09772 | 87.92603 | 36817 ft | 434 kts | 105° |
| 2026-05-07 08:52 | 5.08227 | 87.98460 | 36817 ft | 434 kts | 105° |
| 2026-05-07 08:53 | 5.06665 | 88.04314 | 36816 ft | 434 kts | 105° |
| 2026-05-07 08:53 | 5.05042 | 88.10147 | 36813 ft | 434 kts | 106° |
| 2026-05-07 08:54 | 5.03408 | 88.15975 | 36814 ft | 434 kts | 105° |
| 2026-05-07 08:54 | 5.01795 | 88.21778 | 36814 ft | 435 kts | 105° |
| 2026-05-07 08:55 | 5.00177 | 88.27625 | 36815 ft | 435 kts | 105° |
| 2026-05-07 08:55 | 4.98563 | 88.33483 | 36818 ft | 435 kts | 105° |
| 2026-05-07 08:56 | 4.96945 | 88.39334 | 36816 ft | 435 kts | 105° |
| 2026-05-07 08:56 | 4.95318 | 88.45178 | 36812 ft | 435 kts | 105° |
| 2026-05-07 08:57 | 4.93702 | 88.50977 | 36816 ft | 435 kts | 105° |
| 2026-05-07 08:57 | 4.92077 | 88.56820 | 36813 ft | 435 kts | 105° |
| 2026-05-07 08:58 | 4.90452 | 88.62674 | 36810 ft | 436 kts | 105° |
| 2026-05-07 08:58 | 4.88828 | 88.68533 | 36809 ft | 436 kts | 105° |
| 2026-05-07 08:59 | 4.87476 | 88.73407 | 36810 ft | 436 kts | 105° |
| 2026-05-07 08:59 | 4.85842 | 88.79262 | 36814 ft | 436 kts | 105° |
| 2026-05-07 09:00 | 4.84212 | 88.85124 | 36816 ft | 436 kts | 105° |
| 2026-05-07 09:00 | 4.82586 | 88.90979 | 36819 ft | 435 kts | 105° |
| 2026-05-07 09:01 | 4.80957 | 88.96828 | 36819 ft | 435 kts | 105° |
| 2026-05-07 09:01 | 4.79343 | 89.02633 | 36818 ft | 435 kts | 105° |
| 2026-05-07 09:02 | 4.77728 | 89.08477 | 36814 ft | 434 kts | 105° |
| 2026-05-07 09:02 | 4.76105 | 89.14308 | 36815 ft | 434 kts | 105° |
| 2026-05-07 09:03 | 4.74474 | 89.20143 | 36815 ft | 434 kts | 105° |
| 2026-05-07 09:03 | 4.72839 | 89.25974 | 36814 ft | 435 kts | 105° |
| 2026-05-07 09:04 | 4.71212 | 89.31814 | 36813 ft | 435 kts | 105° |
| 2026-05-07 09:04 | 4.69585 | 89.37661 | 36813 ft | 435 kts | 105° |
| 2026-05-07 09:05 | 4.67957 | 89.43506 | 36813 ft | 435 kts | 105° |
| 2026-05-07 09:05 | 4.66322 | 89.49355 | 36813 ft | 435 kts | 105° |
| 2026-05-07 09:06 | 4.64686 | 89.55194 | 36814 ft | 435 kts | 105° |
| 2026-05-07 09:06 | 4.63067 | 89.60994 | 36812 ft | 435 kts | 105° |
| 2026-05-07 09:07 | 4.61439 | 89.66827 | 36808 ft | 434 kts | 105° |
| 2026-05-07 09:07 | 4.59810 | 89.72655 | 36807 ft | 434 kts | 105° |
| 2026-05-07 09:08 | 4.58182 | 89.78486 | 36807 ft | 434 kts | 105° |
| 2026-05-07 09:08 | 4.56555 | 89.84321 | 36804 ft | 435 kts | 105° |
| 2026-05-07 09:09 | 4.54914 | 89.90167 | 36802 ft | 436 kts | 105° |
| 2026-05-07 09:09 | 4.53275 | 89.96017 | 36802 ft | 436 kts | 105° |
| 2026-05-07 09:10 | 4.51634 | 90.01868 | 36798 ft | 436 kts | 105° |
| 2026-05-07 09:10 | 4.50000 | 90.07726 | 36801 ft | 437 kts | 105° |
| 2026-05-07 09:11 | 4.48355 | 90.13594 | 36805 ft | 437 kts | 105° |
| 2026-05-07 09:11 | 4.46712 | 90.19466 | 36806 ft | 438 kts | 105° |
| 2026-05-07 09:12 | 4.45060 | 90.25336 | 36804 ft | 438 kts | 105° |
| 2026-05-07 09:12 | 4.43420 | 90.31170 | 36806 ft | 438 kts | 105° |
| 2026-05-07 09:13 | 4.41770 | 90.37046 | 36808 ft | 438 kts | 105° |
| 2026-05-07 09:13 | 4.40160 | 90.42935 | 36804 ft | 438 kts | 104° |
| 2026-05-07 09:14 | 4.38691 | 90.48862 | 36803 ft | 439 kts | 103° |
| 2026-05-07 09:14 | 4.37255 | 90.54805 | 36802 ft | 439 kts | 103° |
| 2026-05-07 09:15 | 4.35782 | 90.60746 | 36805 ft | 439 kts | 104° |
| 2026-05-07 09:15 | 4.34296 | 90.66641 | 36806 ft | 439 kts | 104° |
| 2026-05-07 09:16 | 4.32803 | 90.72564 | 36806 ft | 439 kts | 104° |
| 2026-05-07 09:16 | 4.31323 | 90.78494 | 36796 ft | 439 kts | 104° |
| 2026-05-07 09:17 | 4.29850 | 90.84424 | 36803 ft | 439 kts | 104° |
| 2026-05-07 09:17 | 4.28368 | 90.90353 | 36806 ft | 439 kts | 104° |
| 2026-05-07 09:18 | 4.26876 | 90.96286 | 36807 ft | 439 kts | 104° |
| 2026-05-07 09:18 | 4.25383 | 91.02220 | 36811 ft | 439 kts | 104° |
| 2026-05-07 09:19 | 4.23891 | 91.08150 | 36812 ft | 439 kts | 104° |
| 2026-05-07 09:19 | 4.22406 | 91.14084 | 36814 ft | 439 kts | 104° |
| 2026-05-07 09:20 | 4.20919 | 91.20004 | 36828 ft | 437 kts | 104° |
| 2026-05-07 09:20 | 4.19437 | 91.25897 | 36830 ft | 435 kts | 104° |
| 2026-05-07 09:21 | 4.17963 | 91.31772 | 36826 ft | 434 kts | 104° |
| 2026-05-07 09:21 | 4.16499 | 91.37599 | 36821 ft | 433 kts | 104° |
| 2026-05-07 09:22 | 4.15030 | 91.43450 | 36821 ft | 433 kts | 104° |
| 2026-05-07 09:22 | 4.13563 | 91.49294 | 36823 ft | 433 kts | 104° |
| 2026-05-07 09:23 | 4.12092 | 91.55136 | 36827 ft | 432 kts | 103° |
| 2026-05-07 09:23 | 4.10626 | 91.60966 | 36826 ft | 431 kts | 103° |
| 2026-05-07 09:24 | 4.09163 | 91.66781 | 36821 ft | 430 kts | 103° |
| 2026-05-07 09:24 | 4.07706 | 91.72587 | 36830 ft | 430 kts | 103° |
| 2026-05-07 09:25 | 4.06253 | 91.78356 | 36828 ft | 429 kts | 103° |
| 2026-05-07 09:25 | 4.04788 | 91.84156 | 36822 ft | 429 kts | 103° |
| 2026-05-07 09:26 | 4.03340 | 91.89950 | 36821 ft | 429 kts | 103° |
| 2026-05-07 09:26 | 4.01879 | 91.95750 | 36808 ft | 429 kts | 103° |
| 2026-05-07 09:27 | 4.00410 | 92.01559 | 36807 ft | 430 kts | 104° |
| 2026-05-07 09:28 | 3.98165 | 92.10233 | 36803 ft | 431 kts | 104° |
| 2026-05-07 09:28 | 3.96643 | 92.16047 | 36810 ft | 431 kts | 104° |
| 2026-05-07 09:29 | 3.95132 | 92.21862 | 36810 ft | 431 kts | 104° |
| 2026-05-07 09:29 | 3.93637 | 92.27678 | 36812 ft | 431 kts | 104° |
| 2026-05-07 09:30 | 3.92418 | 92.33558 | 36814 ft | 431 kts | 99° |
| 2026-05-07 09:30 | 3.91509 | 92.39497 | 36817 ft | 431 kts | 98° |
| 2026-05-07 09:31 | 3.90632 | 92.45437 | 36818 ft | 431 kts | 98° |
| 2026-05-07 09:31 | 3.89723 | 92.51374 | 36819 ft | 431 kts | 99° |
| 2026-05-07 09:32 | 3.88798 | 92.57310 | 36823 ft | 431 kts | 99° |
| 2026-05-07 09:32 | 3.87876 | 92.63248 | 36824 ft | 432 kts | 99° |
| 2026-05-07 09:33 | 3.86952 | 92.69190 | 36822 ft | 432 kts | 99° |
| 2026-05-07 09:33 | 3.86035 | 92.75089 | 36830 ft | 432 kts | 99° |
| 2026-05-07 09:34 | 3.85113 | 92.81030 | 36829 ft | 432 kts | 99° |
| 2026-05-07 09:34 | 3.84183 | 92.86965 | 36827 ft | 431 kts | 99° |
| 2026-05-07 09:35 | 3.83254 | 92.92908 | 36833 ft | 431 kts | 99° |
| 2026-05-07 09:35 | 3.82336 | 92.98840 | 36832 ft | 431 kts | 99° |
| 2026-05-07 09:36 | 3.81407 | 93.04775 | 36828 ft | 431 kts | 99° |
| 2026-05-07 09:36 | 3.80476 | 93.10719 | 36820 ft | 431 kts | 99° |
| 2026-05-07 09:37 | 3.79553 | 93.16614 | 36820 ft | 431 kts | 99° |
| 2026-05-07 09:37 | 3.78621 | 93.22553 | 36824 ft | 432 kts | 99° |
| 2026-05-07 09:38 | 3.77693 | 93.28489 | 36821 ft | 432 kts | 99° |
| 2026-05-07 09:38 | 3.76767 | 93.34430 | 36822 ft | 432 kts | 99° |
| 2026-05-07 09:39 | 3.75843 | 93.40367 | 36821 ft | 431 kts | 99° |
| 2026-05-07 09:39 | 3.74916 | 93.46298 | 36821 ft | 431 kts | 99° |
| 2026-05-07 09:40 | 3.73986 | 93.52234 | 36823 ft | 431 kts | 99° |
| 2026-05-07 09:40 | 3.73049 | 93.58168 | 36822 ft | 431 kts | 99° |
| 2026-05-07 09:41 | 3.72126 | 93.64059 | 36822 ft | 431 kts | 99° |
| 2026-05-07 09:41 | 3.71197 | 93.69995 | 36823 ft | 431 kts | 99° |
| 2026-05-07 09:42 | 3.70268 | 93.75928 | 36825 ft | 431 kts | 99° |
| 2026-05-07 09:42 | 3.69342 | 93.81870 | 36828 ft | 432 kts | 99° |
| 2026-05-07 09:43 | 3.68415 | 93.87813 | 36819 ft | 432 kts | 99° |
| 2026-05-07 09:43 | 3.67478 | 93.93764 | 36819 ft | 433 kts | 99° |
| 2026-05-07 09:44 | 3.66536 | 93.99720 | 36819 ft | 433 kts | 99° |
| 2026-05-07 09:44 | 3.65603 | 94.05682 | 36822 ft | 434 kts | 99° |
| 2026-05-07 09:45 | 3.64667 | 94.11610 | 36829 ft | 434 kts | 99° |
| 2026-05-07 09:45 | 3.63722 | 94.17612 | 36832 ft | 434 kts | 99° |
| 2026-05-07 09:46 | 3.62789 | 94.23540 | 36829 ft | 434 kts | 99° |
| 2026-05-07 09:46 | 3.61850 | 94.29512 | 36827 ft | 434 kts | 99° |
| 2026-05-07 09:47 | 3.60899 | 94.35494 | 36826 ft | 435 kts | 99° |
| 2026-05-07 09:47 | 3.59953 | 94.41482 | 36827 ft | 435 kts | 99° |
| 2026-05-07 09:48 | 3.59013 | 94.47467 | 36829 ft | 435 kts | 99° |
| 2026-05-07 09:48 | 3.58233 | 94.52438 | 36830 ft | 435 kts | 99° |
| 2026-05-07 09:49 | 3.57290 | 94.58424 | 36836 ft | 435 kts | 99° |
| 2026-05-07 09:49 | 3.56340 | 94.64413 | 36830 ft | 436 kts | 99° |
| 2026-05-07 09:50 | 3.55398 | 94.70401 | 36829 ft | 436 kts | 99° |
| 2026-05-07 09:50 | 3.54459 | 94.76404 | 36828 ft | 436 kts | 99° |
| 2026-05-07 09:51 | 3.53510 | 94.82398 | 36831 ft | 436 kts | 99° |
| 2026-05-07 09:51 | 3.52556 | 94.88365 | 36831 ft | 436 kts | 100° |
| 2026-05-07 09:52 | 3.51604 | 94.94369 | 36830 ft | 436 kts | 99° |
| 2026-05-07 09:52 | 3.50655 | 95.00378 | 36823 ft | 437 kts | 99° |
| 2026-05-07 09:53 | 3.49702 | 95.06393 | 36824 ft | 438 kts | 99° |
| 2026-05-07 09:53 | 3.48748 | 95.12415 | 36824 ft | 438 kts | 99° |
| 2026-05-07 09:54 | 3.47799 | 95.18400 | 36829 ft | 439 kts | 99° |
| 2026-05-07 09:54 | 3.46848 | 95.24431 | 36831 ft | 439 kts | 99° |
| 2026-05-07 09:55 | 3.45887 | 95.30460 | 36833 ft | 439 kts | 99° |
| 2026-05-07 09:55 | 3.44927 | 95.36499 | 36834 ft | 439 kts | 99° |
| 2026-05-07 09:56 | 3.43970 | 95.42528 | 36837 ft | 439 kts | 99° |
| 2026-05-07 09:56 | 3.43015 | 95.48561 | 36839 ft | 439 kts | 99° |
| 2026-05-07 09:57 | 3.42057 | 95.54591 | 36841 ft | 439 kts | 99° |
| 2026-05-07 09:57 | 3.41100 | 95.60623 | 36838 ft | 439 kts | 99° |
| 2026-05-07 09:58 | 3.40133 | 95.66653 | 36839 ft | 439 kts | 99° |
| 2026-05-07 09:58 | 3.39178 | 95.72692 | 36836 ft | 439 kts | 99° |
| 2026-05-07 09:59 | 3.38222 | 95.78730 | 36841 ft | 439 kts | 99° |
| 2026-05-07 09:59 | 3.37256 | 95.84778 | 36848 ft | 439 kts | 99° |
| 2026-05-07 10:00 | 3.36289 | 95.90812 | 36839 ft | 439 kts | 99° |
| 2026-05-07 10:00 | 3.35328 | 95.96851 | 36850 ft | 439 kts | 99° |
| 2026-05-07 10:01 | 3.34367 | 96.02877 | 36850 ft | 439 kts | 99° |
| 2026-05-07 10:01 | 3.33409 | 96.08904 | 36844 ft | 438 kts | 99° |
| 2026-05-07 10:02 | 3.32445 | 96.14927 | 36852 ft | 438 kts | 99° |
| 2026-05-07 10:02 | 3.31485 | 96.20949 | 36851 ft | 438 kts | 99° |
| 2026-05-07 10:03 | 3.30533 | 96.26920 | 36850 ft | 438 kts | 99° |
| 2026-05-07 10:03 | 3.29572 | 96.32932 | 36850 ft | 437 kts | 99° |
| 2026-05-07 10:04 | 3.28609 | 96.38945 | 36849 ft | 437 kts | 99° |
| 2026-05-07 10:04 | 3.27651 | 96.44957 | 36843 ft | 437 kts | 99° |
| 2026-05-07 10:05 | 3.26695 | 96.50966 | 36834 ft | 437 kts | 99° |
| 2026-05-07 10:05 | 3.25725 | 96.56982 | 36836 ft | 438 kts | 99° |
| 2026-05-07 10:06 | 3.24765 | 96.63003 | 36839 ft | 438 kts | 99° |
| 2026-05-07 10:06 | 3.23802 | 96.69029 | 36840 ft | 438 kts | 99° |
| 2026-05-07 10:07 | 3.22838 | 96.75016 | 36844 ft | 439 kts | 99° |
| 2026-05-07 10:07 | 3.21880 | 96.81042 | 36845 ft | 439 kts | 99° |
| 2026-05-07 10:08 | 3.20917 | 96.87070 | 36853 ft | 439 kts | 99° |
| 2026-05-07 10:08 | 3.19945 | 96.93101 | 36850 ft | 439 kts | 99° |
| 2026-05-07 10:09 | 3.18978 | 96.99138 | 36861 ft | 439 kts | 99° |
| 2026-05-07 10:09 | 3.18007 | 97.05175 | 36856 ft | 439 kts | 99° |
| 2026-05-07 10:10 | 3.17038 | 97.11211 | 36858 ft | 440 kts | 99° |
| 2026-05-07 10:10 | 3.16063 | 97.17254 | 36875 ft | 440 kts | 99° |
| 2026-05-07 10:11 | 3.15095 | 97.23260 | 36870 ft | 440 kts | 99° |
| 2026-05-07 10:11 | 3.14121 | 97.29305 | 36879 ft | 440 kts | 99° |
| 2026-05-07 10:12 | 3.13149 | 97.35347 | 36891 ft | 440 kts | 99° |
| 2026-05-07 10:12 | 3.12185 | 97.41398 | 36882 ft | 440 kts | 99° |
| 2026-05-07 10:13 | 3.11218 | 97.47442 | 36896 ft | 440 kts | 99° |
| 2026-05-07 10:13 | 3.10245 | 97.53484 | 36893 ft | 440 kts | 99° |
| 2026-05-07 10:14 | 3.09267 | 97.59531 | 36892 ft | 440 kts | 99° |
| 2026-05-07 10:14 | 3.08290 | 97.65574 | 36896 ft | 439 kts | 99° |
| 2026-05-07 10:15 | 3.07330 | 97.71571 | 36900 ft | 439 kts | 99° |
| 2026-05-07 10:15 | 3.06361 | 97.77608 | 36900 ft | 439 kts | 99° |
| 2026-05-07 10:16 | 3.05390 | 97.83634 | 36894 ft | 439 kts | 99° |
| 2026-05-07 10:16 | 3.04414 | 97.89655 | 36881 ft | 438 kts | 99° |
| 2026-05-07 10:17 | 3.03442 | 97.95682 | 36891 ft | 438 kts | 99° |
| 2026-05-07 10:17 | 3.02465 | 98.01705 | 36876 ft | 439 kts | 99° |
| 2026-05-07 10:18 | 3.01493 | 98.07738 | 36878 ft | 439 kts | 99° |
| 2026-05-07 10:18 | 3.00527 | 98.13776 | 36880 ft | 439 kts | 99° |
| 2026-05-07 10:19 | 2.99555 | 98.19767 | 36883 ft | 439 kts | 99° |
| 2026-05-07 10:19 | 2.98565 | 98.25837 | 36885 ft | 439 kts | 99° |
| 2026-05-07 10:20 | 2.97597 | 98.31831 | 36892 ft | 439 kts | 99° |
| 2026-05-07 10:20 | 2.96622 | 98.37862 | 36879 ft | 439 kts | 99° |
| 2026-05-07 10:21 | 2.95642 | 98.43905 | 36877 ft | 440 kts | 99° |
| 2026-05-07 10:21 | 2.94667 | 98.49952 | 36878 ft | 441 kts | 99° |
| 2026-05-07 10:22 | 2.93687 | 98.56014 | 36879 ft | 441 kts | 99° |
| 2026-05-07 10:22 | 2.92706 | 98.62069 | 36892 ft | 441 kts | 99° |
| 2026-05-07 10:23 | 2.91723 | 98.68132 | 36875 ft | 442 kts | 99° |
| 2026-05-07 10:23 | 2.90733 | 98.74197 | 36877 ft | 442 kts | 99° |
| 2026-05-07 10:24 | 2.89751 | 98.80270 | 36853 ft | 442 kts | 98° |
| 2026-05-07 10:24 | 2.88776 | 98.86310 | 36855 ft | 443 kts | 99° |
| 2026-05-07 10:25 | 2.87787 | 98.92394 | 36857 ft | 443 kts | 98° |
| 2026-05-07 10:25 | 2.86803 | 98.98476 | 36839 ft | 443 kts | 99° |
| 2026-05-07 10:26 | 2.85814 | 99.04562 | 36865 ft | 443 kts | 99° |
| 2026-05-07 10:26 | 2.84826 | 99.10648 | 36840 ft | 443 kts | 99° |
| 2026-05-07 10:27 | 2.83838 | 99.16739 | 36826 ft | 444 kts | 99° |
| 2026-05-07 10:27 | 2.82839 | 99.22843 | 36835 ft | 445 kts | 99° |
| 2026-05-07 10:28 | 2.81839 | 99.28959 | 36825 ft | 446 kts | 99° |
| 2026-05-07 10:28 | 2.80847 | 99.35090 | 36827 ft | 446 kts | 99° |
| 2026-05-07 10:29 | 2.79852 | 99.41216 | 36813 ft | 446 kts | 99° |
| 2026-05-07 10:29 | 2.78861 | 99.47306 | 36812 ft | 446 kts | 99° |
| 2026-05-07 10:30 | 2.77366 | 99.56461 | 36812 ft | 444 kts | 99° |
| 2026-05-07 10:30 | 2.76375 | 99.62556 | 36813 ft | 443 kts | 99° |
| 2026-05-07 10:31 | 2.75389 | 99.68642 | 36808 ft | 443 kts | 99° |
| 2026-05-07 10:31 | 2.74401 | 99.74722 | 36807 ft | 443 kts | 99° |
| 2026-05-07 10:32 | 2.73403 | 99.80801 | 36807 ft | 443 kts | 99° |
| 2026-05-07 10:32 | 2.72401 | 99.86887 | 36797 ft | 443 kts | 99° |
| 2026-05-07 10:33 | 2.71374 | 99.92961 | 36797 ft | 443 kts | 103° |
| 2026-05-07 10:33 | 2.69610 | 99.98867 | 36795 ft | 443 kts | 107° |
| 2026-05-07 10:34 | 2.67784 | 100.04755 | 36795 ft | 443 kts | 107° |
| 2026-05-07 10:34 | 2.65948 | 100.10644 | 36796 ft | 443 kts | 107° |
| 2026-05-07 10:35 | 2.64112 | 100.16528 | 36798 ft | 443 kts | 107° |
| 2026-05-07 10:35 | 2.62293 | 100.22385 | 36791 ft | 444 kts | 107° |
| 2026-05-07 10:36 | 2.60461 | 100.28288 | 36789 ft | 444 kts | 107° |
| 2026-05-07 10:36 | 2.58618 | 100.34186 | 36790 ft | 445 kts | 107° |
| 2026-05-07 10:37 | 2.56777 | 100.40090 | 36792 ft | 445 kts | 107° |
| 2026-05-07 10:37 | 2.55246 | 100.45010 | 36791 ft | 445 kts | 107° |
| 2026-05-07 10:38 | 2.53403 | 100.50921 | 36790 ft | 445 kts | 107° |
| 2026-05-07 10:38 | 2.51563 | 100.56831 | 36791 ft | 445 kts | 107° |
| 2026-05-07 10:39 | 2.49725 | 100.62751 | 36788 ft | 446 kts | 106° |
| 2026-05-07 10:39 | 2.47877 | 100.68679 | 36787 ft | 446 kts | 106° |
| 2026-05-07 10:40 | 2.46044 | 100.74571 | 36790 ft | 447 kts | 106° |
| 2026-05-07 10:40 | 2.44206 | 100.80508 | 36790 ft | 447 kts | 106° |
| 2026-05-07 10:41 | 2.42360 | 100.86451 | 36792 ft | 447 kts | 106° |
| 2026-05-07 10:41 | 2.40516 | 100.92398 | 36794 ft | 447 kts | 106° |
| 2026-05-07 10:42 | 2.38672 | 100.98342 | 36795 ft | 447 kts | 106° |
| 2026-05-07 10:42 | 2.36829 | 101.04282 | 36796 ft | 447 kts | 106° |
| 2026-05-07 10:43 | 2.34984 | 101.10227 | 36796 ft | 447 kts | 106° |
| 2026-05-07 10:43 | 2.33143 | 101.16173 | 36797 ft | 447 kts | 106° |
| 2026-05-07 10:44 | 2.31310 | 101.22119 | 36797 ft | 447 kts | 106° |
| 2026-05-07 10:44 | 2.29464 | 101.28067 | 36797 ft | 447 kts | 106° |
| 2026-05-07 10:45 | 2.27624 | 101.33972 | 36799 ft | 447 kts | 106° |
| 2026-05-07 10:45 | 2.25780 | 101.39902 | 36807 ft | 446 kts | 106° |
| 2026-05-07 10:46 | 2.23940 | 101.45823 | 36810 ft | 445 kts | 107° |
| 2026-05-07 10:46 | 2.22102 | 101.51731 | 36810 ft | 445 kts | 107° |
| 2026-05-07 10:47 | 2.20574 | 101.57716 | 36808 ft | 443 kts | 95° |
| 2026-05-07 10:47 | 2.20109 | 101.63852 | 36810 ft | 443 kts | 94° |
| 2026-05-07 10:48 | 2.19637 | 101.70002 | 36812 ft | 443 kts | 94° |
| 2026-05-07 10:48 | 2.19146 | 101.76142 | 36814 ft | 443 kts | 94° |
| 2026-05-07 10:49 | 2.18673 | 101.82240 | 36815 ft | 442 kts | 94° |
| 2026-05-07 10:49 | 2.18205 | 101.88372 | 36815 ft | 442 kts | 94° |
| 2026-05-07 10:50 | 2.17740 | 101.94509 | 36814 ft | 442 kts | 94° |
| 2026-05-07 10:50 | 2.17264 | 102.00649 | 36813 ft | 442 kts | 94° |
| 2026-05-07 10:51 | 2.16653 | 102.06770 | 36805 ft | 442 kts | 102° |
| 2026-05-07 10:51 | 2.14477 | 102.12496 | 36805 ft | 443 kts | 117° |
| 2026-05-07 10:52 | 2.11606 | 102.17913 | 36806 ft | 443 kts | 117° |
| 2026-05-07 10:52 | 2.08726 | 102.23362 | 36809 ft | 444 kts | 117° |
| 2026-05-07 10:53 | 2.05841 | 102.28827 | 36810 ft | 444 kts | 117° |
| 2026-05-07 10:53 | 2.02952 | 102.34288 | 36814 ft | 444 kts | 117° |
| 2026-05-07 10:54 | 2.00072 | 102.39747 | 36813 ft | 444 kts | 117° |
| 2026-05-07 10:54 | 1.97187 | 102.45212 | 36824 ft | 444 kts | 117° |
| 2026-05-07 10:55 | 1.94289 | 102.50647 | 36824 ft | 443 kts | 118° |
| 2026-05-07 10:55 | 1.91367 | 102.56087 | 36824 ft | 443 kts | 118° |
| 2026-05-07 10:56 | 1.88464 | 102.61499 | 35837 ft | 441 kts | 118° |
| 2026-05-07 10:56 | 1.87049 | 102.64146 | 35198 ft | 432 kts | 118° |
| 2026-05-07 10:56 | 1.85656 | 102.66758 | 34760 ft | 419 kts | 118° |
| 2026-05-07 10:57 | 1.84295 | 102.69309 | 34281 ft | 415 kts | 118° |
| 2026-05-07 10:57 | 1.82918 | 102.71881 | 33768 ft | 422 kts | 118° |
| 2026-05-07 10:57 | 1.81531 | 102.74471 | 33213 ft | 424 kts | 118° |
| 2026-05-07 10:57 | 1.80145 | 102.77064 | 32706 ft | 422 kts | 118° |
| 2026-05-07 10:58 | 1.78763 | 102.79646 | 32196 ft | 421 kts | 118° |
| 2026-05-07 10:58 | 1.77380 | 102.82224 | 31683 ft | 420 kts | 118° |
| 2026-05-07 10:58 | 1.76006 | 102.84788 | 31170 ft | 419 kts | 118° |
| 2026-05-07 10:58 | 1.74633 | 102.87354 | 30652 ft | 418 kts | 118° |
| 2026-05-07 10:59 | 1.73260 | 102.89917 | 30122 ft | 418 kts | 118° |
| 2026-05-07 10:59 | 1.71888 | 102.92483 | 29544 ft | 419 kts | 117° |
| 2026-05-07 10:59 | 1.70522 | 102.95046 | 28999 ft | 417 kts | 117° |
| 2026-05-07 10:59 | 1.69165 | 102.97600 | 28475 ft | 415 kts | 117° |
| 2026-05-07 11:00 | 1.67817 | 103.00141 | 27951 ft | 413 kts | 117° |
| 2026-05-07 11:00 | 1.66473 | 103.02673 | 27441 ft | 411 kts | 117° |
| 2026-05-07 11:00 | 1.65131 | 103.05192 | 26943 ft | 410 kts | 117° |
| 2026-05-07 11:00 | 1.63792 | 103.07702 | 26459 ft | 408 kts | 117° |
| 2026-05-07 11:01 | 1.62468 | 103.10181 | 26253 ft | 399 kts | 117° |
| 2026-05-07 11:01 | 1.61178 | 103.12596 | 26137 ft | 389 kts | 117° |
| 2026-05-07 11:01 | 1.59921 | 103.14951 | 25929 ft | 378 kts | 117° |
| 2026-05-07 11:01 | 1.58694 | 103.17250 | 25249 ft | 372 kts | 117° |
| 2026-05-07 11:02 | 1.57484 | 103.19513 | 24633 ft | 366 kts | 117° |
| 2026-05-07 11:02 | 1.56281 | 103.21767 | 23592 ft | 373 kts | 116° |
| 2026-05-07 11:02 | 1.55045 | 103.24088 | 22330 ft | 382 kts | 116° |
| 2026-05-07 11:02 | 1.53807 | 103.26415 | 21698 ft | 371 kts | 117° |
| 2026-05-07 11:03 | 1.52627 | 103.28622 | 21131 ft | 359 kts | 117° |
| 2026-05-07 11:03 | 1.51457 | 103.30810 | 20507 ft | 357 kts | 117° |
| 2026-05-07 11:03 | 1.50296 | 103.32987 | 20126 ft | 353 kts | 117° |
| 2026-05-07 11:03 | 1.49146 | 103.35146 | 19744 ft | 351 kts | 116° |
| 2026-05-07 11:04 | 1.48003 | 103.37291 | 19350 ft | 348 kts | 116° |
| 2026-05-07 11:04 | 1.46908 | 103.39442 | 18951 ft | 345 kts | 110° |
| 2026-05-07 11:04 | 1.46268 | 103.41737 | 18570 ft | 341 kts | 97° |
| 2026-05-07 11:04 | 1.46192 | 103.44085 | 18111 ft | 335 kts | 84° |
| 2026-05-07 11:05 | 1.46494 | 103.46388 | 17311 ft | 335 kts | 82° |
| 2026-05-07 11:05 | 1.46823 | 103.48686 | 16886 ft | 333 kts | 82° |
| 2026-05-07 11:05 | 1.47152 | 103.50966 | 16482 ft | 330 kts | 82° |
| 2026-05-07 11:05 | 1.47477 | 103.53233 | 16078 ft | 328 kts | 82° |
| 2026-05-07 11:06 | 1.47800 | 103.55484 | 15677 ft | 326 kts | 82° |
| 2026-05-07 11:06 | 1.48116 | 103.57723 | 15289 ft | 323 kts | 82° |
| 2026-05-07 11:06 | 1.48429 | 103.59952 | 14589 ft | 329 kts | 82° |
| 2026-05-07 11:06 | 1.48744 | 103.62195 | 14117 ft | 329 kts | 82° |
| 2026-05-07 11:07 | 1.49063 | 103.64487 | 13700 ft | 328 kts | 82° |
| 2026-05-07 11:07 | 1.49375 | 103.66734 | 13261 ft | 326 kts | 82° |
| 2026-05-07 11:07 | 1.49683 | 103.68966 | 12747 ft | 325 kts | 82° |
| 2026-05-07 11:07 | 1.49995 | 103.71209 | 12030 ft | 332 kts | 82° |
| 2026-05-07 11:08 | 1.50256 | 103.73531 | 11500 ft | 332 kts | 84° |
| 2026-05-07 11:08 | 1.50445 | 103.75792 | 11090 ft | 328 kts | 85° |
| 2026-05-07 11:08 | 1.50605 | 103.78056 | 10659 ft | 326 kts | 86° |
| 2026-05-07 11:08 | 1.50758 | 103.80308 | 10213 ft | 324 kts | 86° |
| 2026-05-07 11:09 | 1.51055 | 103.82528 | 9789 ft | 322 kts | 73° |
| 2026-05-07 11:09 | 1.52020 | 103.84539 | 9342 ft | 321 kts | 58° |
| 2026-05-07 11:09 | 1.53222 | 103.86414 | 8857 ft | 320 kts | 58° |
| 2026-05-07 11:09 | 1.54433 | 103.88270 | 8426 ft | 318 kts | 57° |
| 2026-05-07 11:10 | 1.55640 | 103.90109 | 7992 ft | 316 kts | 57° |
| 2026-05-07 11:10 | 1.56847 | 103.91937 | 7561 ft | 314 kts | 57° |
| 2026-05-07 11:10 | 1.58054 | 103.93750 | 7140 ft | 312 kts | 57° |
| 2026-05-07 11:10 | 1.59251 | 103.95551 | 6722 ft | 311 kts | 57° |
| 2026-05-07 11:11 | 1.60444 | 103.97346 | 6297 ft | 309 kts | 57° |
| 2026-05-07 11:11 | 1.61648 | 103.99159 | 5620 ft | 315 kts | 57° |
| 2026-05-07 11:11 | 1.62860 | 104.00990 | 5099 ft | 316 kts | 57° |
| 2026-05-07 11:11 | 1.64030 | 104.02837 | 4631 ft | 313 kts | 64° |
| 2026-05-07 11:12 | 1.64581 | 104.04914 | 4187 ft | 310 kts | 89° |
| 2026-05-07 11:12 | 1.64187 | 104.06967 | 4053 ft | 296 kts | 114° |
| 2026-05-07 11:12 | 1.63013 | 104.08538 | 3930 ft | 272 kts | 141° |
| 2026-05-07 11:12 | 1.61395 | 104.09320 | 3808 ft | 250 kts | 165° |
| 2026-05-07 11:13 | 1.59752 | 104.09555 | 3611 ft | 228 kts | 184° |
| 2026-05-07 11:13 | 1.58214 | 104.09192 | 3230 ft | 232 kts | 206° |
| 2026-05-07 11:13 | 1.56905 | 104.08267 | 2976 ft | 229 kts | 224° |
| 2026-05-07 11:13 | 1.55862 | 104.07110 | 2886 ft | 217 kts | 227° |
| 2026-05-07 11:14 | 1.54758 | 104.06149 | 2771 ft | 205 kts | 210° |
| 2026-05-07 11:14 | 1.53455 | 104.05652 | 2578 ft | 200 kts | 192° |
| 2026-05-07 11:14 | 1.52189 | 104.05201 | 2516 ft | 185 kts | 207° |
| 2026-05-07 11:14 | 1.51091 | 104.04638 | 2491 ft | 170 kts | 204° |
| 2026-05-07 11:15 | 1.50063 | 104.04169 | 2451 ft | 156 kts | 202° |
| 2026-05-07 11:15 | 1.49093 | 104.03748 | 2320 ft | 149 kts | 201° |
| 2026-05-07 11:15 | 1.48162 | 104.03350 | 2121 ft | 146 kts | 202° |
| 2026-05-07 11:15 | 1.47217 | 104.02951 | 1895 ft | 145 kts | 201° |
| 2026-05-07 11:16 | 1.46308 | 104.02557 | 1667 ft | 146 kts | 202° |
| 2026-05-07 11:16 | 1.45321 | 104.02131 | 1586 ft | 157 kts | 199° |
| 2026-05-07 11:16 | 1.44302 | 104.01741 | 1467 ft | 155 kts | 200° |
| 2026-05-07 11:16 | 1.43305 | 104.01325 | 1249 ft | 156 kts | 206° |
| 2026-05-07 11:17 | 1.42314 | 104.00849 | 1010 ft | 159 kts | 202° |
| 2026-05-07 11:17 | 1.41294 | 104.00430 | 802 ft | 158 kts | 200° |
| 2026-05-07 11:17 | 1.40297 | 104.00020 | 615 ft | 155 kts | 201° |
| 2026-05-07 11:17 | 1.39308 | 103.99613 | 407 ft | 154 kts | 202° |
| 2026-05-07 11:18 | 1.38345 | 103.99210 | 216 ft | 152 kts | 203° |
| 2026-05-07 11:18 | 1.37377 | 103.98790 | 43 ft | 148 kts | 201° |
| 2026-05-07 11:18 | 1.36650 | 103.98487 | 31 ft | 81 kts | 203° |
| 2026-05-07 11:18 | 1.36402 | 103.98381 | 31 ft | 9 kts | 203° |
| 2026-05-07 11:19 | 1.36275 | 103.98330 | 31 ft | 24 kts | 200° |
| 2026-05-07 11:19 | 1.36110 | 103.98281 | 31 ft | 26 kts | 187° |
| 2026-05-07 11:19 | 1.35943 | 103.98290 | 31 ft | 22 kts | 171° |
| 2026-05-07 11:19 | 1.35828 | 103.98301 | 31 ft | 6 kts | 175° |
| 2026-05-07 11:20 | 1.35776 | 103.98306 | 31 ft | 9 kts | 175° |
| 2026-05-07 11:20 | 1.35714 | 103.98338 | 31 ft | 12 kts | 123° |
| 2026-05-07 11:20 | 1.35740 | 103.98397 | 31 ft | 13 kts | 18° |
| 2026-05-07 11:20 | 1.35786 | 103.98414 | 31 ft | 6 kts | 23° |
| 2026-05-07 11:21 | 1.35834 | 103.98434 | 31 ft | 8 kts | 23° |
| 2026-05-07 11:21 | 1.35861 | 103.98461 | 31 ft | 7 kts | 70° |
| 2026-05-07 11:21 | 1.35849 | 103.98506 | 31 ft | 6 kts | 112° |
| 2026-05-07 11:21 | 1.35842 | 103.98532 | 31 ft | 1 kts | 101° |
| 2026-05-07 11:22 | 1.35840 | 103.98541 | 31 ft | 0 kts | 101° |
| 2026-05-07 11:22 | 1.35840 | 103.98544 | 31 ft | 0 kts | 101° |